createdAt,value
2023-03-29T00:00:00.430Z,-0.6
2023-03-29T00:15:00.458Z,-0.8
2023-03-29T00:30:00.468Z,-0.8
2023-03-29T00:45:00.527Z,-0.8
2023-03-29T01:00:00.467Z,-0.9
2023-03-29T01:15:00.424Z,-0.9
2023-03-29T01:30:00.458Z,-1.0
2023-03-29T01:45:00.518Z,-1.1
2023-03-29T02:00:00.466Z,-1.0
2023-03-29T02:15:00.438Z,-1.0
2023-03-29T02:30:00.429Z,-1.0
2023-03-29T02:45:00.524Z,-1.0
2023-03-29T03:00:00.437Z,-1.0
2023-03-29T03:15:00.436Z,-1.1
2023-03-29T03:30:00.470Z,-1.0
2023-03-29T03:45:00.511Z,-1.0
2023-03-29T04:00:00.435Z,-1.1
2023-03-29T04:15:00.439Z,-1.1
2023-03-29T04:30:00.435Z,-1.1
2023-03-29T04:45:00.549Z,-1.0
2023-03-29T05:00:00.454Z,-0.9
2023-03-29T05:15:00.450Z,-0.8
2023-03-29T05:30:00.503Z,-0.7
2023-03-29T05:45:00.486Z,-0.6
2023-03-29T06:00:00.442Z,-0.3
2023-03-29T06:15:00.468Z,-0.1
2023-03-29T06:30:00.487Z,0.1
2023-03-29T06:45:00.527Z,0.5
2023-03-29T07:00:00.439Z,0.9
2023-03-29T07:15:00.461Z,1.3
2023-03-29T07:30:00.777Z,1.6
2023-03-29T07:45:00.500Z,1.8
2023-03-29T08:00:00.447Z,2.0
2023-03-29T08:15:00.490Z,2.3
2023-03-29T08:30:00.457Z,2.5
2023-03-29T08:45:00.515Z,2.8
2023-03-29T09:00:00.424Z,3.1
2023-03-29T09:15:00.474Z,3.3
2023-03-29T09:30:00.462Z,3.6
2023-03-29T09:45:00.516Z,3.8
2023-03-29T10:00:00.475Z,4.1
2023-03-29T10:15:00.509Z,4.4
2023-03-29T10:30:00.453Z,4.7
2023-03-29T10:45:00.610Z,5.0
2023-03-29T11:00:00.441Z,5.2
2023-03-29T11:15:00.445Z,5.4
2023-03-29T11:30:00.435Z,5.6
2023-03-29T11:45:00.508Z,5.8
2023-03-29T12:00:00.461Z,6.0
2023-03-29T12:15:00.444Z,6.1
2023-03-29T12:30:00.466Z,6.2
2023-03-29T12:45:00.520Z,6.4
2023-03-29T13:00:00.479Z,6.6
2023-03-29T13:15:00.458Z,6.8
2023-03-29T13:30:00.462Z,6.9
2023-03-29T13:45:00.522Z,7.1
2023-03-29T14:00:00.493Z,7.4
2023-03-29T14:15:00.498Z,7.5
2023-03-29T14:30:00.475Z,7.6
2023-03-29T14:45:00.508Z,7.7
2023-03-29T15:00:00.447Z,7.8
2023-03-29T15:15:00.448Z,7.9
2023-03-29T15:30:00.461Z,8.0
2023-03-29T15:45:00.472Z,8.3
2023-03-29T16:00:00.557Z,8.2
2023-03-29T16:15:00.453Z,8.0
2023-03-29T16:30:00.498Z,7.8
2023-03-29T16:45:00.438Z,7.7
2023-03-29T17:00:00.452Z,7.6
2023-03-29T17:15:01.239Z,7.4
2023-03-29T17:30:00.738Z,7.3
2023-03-29T17:45:00.460Z,7.1
2023-03-29T18:00:00.455Z,6.8
2023-03-29T18:15:00.469Z,6.5
2023-03-29T18:30:00.559Z,6.2
2023-03-29T18:45:00.440Z,5.8
2023-03-29T19:00:00.516Z,5.5
2023-03-29T19:15:00.494Z,5.0
2023-03-29T19:30:00.506Z,4.5
2023-03-29T19:45:00.518Z,4.0
2023-03-29T20:00:00.508Z,3.5
2023-03-29T20:15:00.478Z,3.1
2023-03-29T20:30:00.442Z,2.7
2023-03-29T20:45:00.532Z,2.4
2023-03-29T21:00:00.455Z,2.1
2023-03-29T21:15:00.455Z,1.9
2023-03-29T21:30:00.564Z,1.5
2023-03-29T21:45:00.526Z,1.3
2023-03-29T22:00:00.450Z,1.3
2023-03-29T22:15:00.471Z,1.4
2023-03-29T22:30:00.497Z,1.4
2023-03-29T22:45:00.492Z,1.4
2023-03-29T23:00:00.442Z,1.3
2023-03-29T23:15:00.428Z,1.3
2023-03-29T23:30:00.445Z,1.4
2023-03-29T23:45:00.522Z,1.5
